sensor_id;sensor_type;location;lat;lon;timestamp;P1;durP1;ratioP1;P2;durP2;ratioP2
58982;SDS011;44771;49.982;8.560;2022-12-07T00:00:16;23.50;;;17.87;;
58982;SDS011;44771;49.982;8.560;2022-12-07T00:05:18;25.23;;;17.12;;
58982;SDS011;44771;49.982;8.560;2022-12-07T00:10:21;24.10;;;18.65;;
58982;SDS011;44771;49.982;8.560;2022-12-07T00:15:24;29.25;;;20.98;;
58982;SDS011;44771;49.982;8.560;2022-12-07T00:20:26;36.53;;;23.12;;
58982;SDS011;44771;49.982;8.560;2022-12-07T00:25:27;35.65;;;19.20;;
58982;SDS011;44771;49.982;8.560;2022-12-07T00:30:32;30.90;;;20.60;;
58982;SDS011;44771;49.982;8.560;2022-12-07T00:35:34;28.40;;;19.27;;
58982;SDS011;44771;49.982;8.560;2022-12-07T00:40:35;25.92;;;19.02;;
58982;SDS011;44771;49.982;8.560;2022-12-07T00:45:38;28.25;;;19.75;;
58982;SDS011;44771;49.982;8.560;2022-12-07T00:50:41;28.40;;;20.27;;
58982;SDS011;44771;49.982;8.560;2022-12-07T00:55:43;33.17;;;19.20;;
58982;SDS011;44771;49.982;8.560;2022-12-07T01:00:46;28.87;;;20.98;;
58982;SDS011;44771;49.982;8.560;2022-12-07T01:05:49;29.37;;;18.37;;
58982;SDS011;44771;49.982;8.560;2022-12-07T01:10:57;24.98;;;17.15;;
58982;SDS011;44771;49.982;8.560;2022-12-07T01:16:02;30.58;;;19.62;;
58982;SDS011;44771;49.982;8.560;2022-12-07T01:21:05;25.95;;;18.05;;
58982;SDS011;44771;49.982;8.560;2022-12-07T01:26:12;23.87;;;19.27;;
58982;SDS011;44771;49.982;8.560;2022-12-07T01:31:17;28.30;;;19.17;;
58982;SDS011;44771;49.982;8.560;2022-12-07T01:36:21;25.05;;;19.15;;
58982;SDS011;44771;49.982;8.560;2022-12-07T01:41:24;26.80;;;18.75;;
58982;SDS011;44771;49.982;8.560;2022-12-07T01:46:29;29.63;;;19.30;;
58982;SDS011;44771;49.982;8.560;2022-12-07T01:51:31;24.73;;;17.90;;
58982;SDS011;44771;49.982;8.560;2022-12-07T01:56:33;29.25;;;19.75;;
58982;SDS011;44771;49.982;8.560;2022-12-07T02:01:36;27.15;;;19.70;;
58982;SDS011;44771;49.982;8.560;2022-12-07T02:06:38;22.65;;;17.33;;
58982;SDS011;44771;49.982;8.560;2022-12-07T02:11:41;27.60;;;19.25;;
58982;SDS011;44771;49.982;8.560;2022-12-07T02:16:47;26.60;;;17.50;;
58982;SDS011;44771;49.982;8.560;2022-12-07T02:22:07;27.10;;;18.50;;
58982;SDS011;44771;49.982;8.560;2022-12-07T02:27:25;24.70;;;18.17;;
58982;SDS011;44771;49.982;8.560;2022-12-07T02:32:42;28.87;;;18.92;;
58982;SDS011;44771;49.982;8.560;2022-12-07T02:37:54;24.87;;;18.50;;
58982;SDS011;44771;49.982;8.560;2022-12-07T02:43:02;24.35;;;17.17;;
58982;SDS011;44771;49.982;8.560;2022-12-07T02:48:08;24.60;;;18.80;;
58982;SDS011;44771;49.982;8.560;2022-12-07T02:53:28;23.23;;;17.45;;
58982;SDS011;44771;49.982;8.560;2022-12-07T02:58:33;24.23;;;17.60;;
58982;SDS011;44771;49.982;8.560;2022-12-07T03:03:47;23.92;;;18.10;;
58982;SDS011;44771;49.982;8.560;2022-12-07T03:08:56;20.88;;;17.30;;
58982;SDS011;44771;49.982;8.560;2022-12-07T03:14:09;23.38;;;16.55;;
58982;SDS011;44771;49.982;8.560;2022-12-07T03:19:19;24.63;;;17.17;;
58982;SDS011;44771;49.982;8.560;2022-12-07T03:29:27;20.08;;;15.85;;
58982;SDS011;44771;49.982;8.560;2022-12-07T03:34:35;24.73;;;16.30;;
58982;SDS011;44771;49.982;8.560;2022-12-07T03:39:41;26.15;;;16.08;;
58982;SDS011;44771;49.982;8.560;2022-12-07T03:44:50;21.23;;;15.73;;
58982;SDS011;44771;49.982;8.560;2022-12-07T03:49:55;20.27;;;16.20;;
58982;SDS011;44771;49.982;8.560;2022-12-07T03:55:02;21.95;;;15.85;;
58982;SDS011;44771;49.982;8.560;2022-12-07T04:00:09;20.08;;;16.62;;
58982;SDS011;44771;49.982;8.560;2022-12-07T04:05:13;23.33;;;17.27;;
58982;SDS011;44771;49.982;8.560;2022-12-07T04:10:15;22.42;;;16.10;;
58982;SDS011;44771;49.982;8.560;2022-12-07T04:15:17;23.90;;;16.23;;
58982;SDS011;44771;49.982;8.560;2022-12-07T04:20:20;20.80;;;16.60;;
58982;SDS011;44771;49.982;8.560;2022-12-07T04:25:22;20.10;;;16.27;;
58982;SDS011;44771;49.982;8.560;2022-12-07T04:30:24;24.12;;;17.17;;
58982;SDS011;44771;49.982;8.560;2022-12-07T04:35:33;20.17;;;15.45;;
58982;SDS011;44771;49.982;8.560;2022-12-07T04:40:37;24.25;;;17.98;;
58982;SDS011;44771;49.982;8.560;2022-12-07T04:45:46;24.77;;;18.10;;
58982;SDS011;44771;49.982;8.560;2022-12-07T04:50:49;22.25;;;16.27;;
58982;SDS011;44771;49.982;8.560;2022-12-07T04:56:05;22.20;;;16.02;;
58982;SDS011;44771;49.982;8.560;2022-12-07T05:01:12;21.80;;;16.35;;
58982;SDS011;44771;49.982;8.560;2022-12-07T05:06:16;30.23;;;17.42;;
58982;SDS011;44771;49.982;8.560;2022-12-07T05:11:18;23.08;;;16.25;;
58982;SDS011;44771;49.982;8.560;2022-12-07T05:16:20;22.42;;;17.05;;
58982;SDS011;44771;49.982;8.560;2022-12-07T05:21:23;21.80;;;16.40;;
58982;SDS011;44771;49.982;8.560;2022-12-07T05:26:25;21.83;;;16.95;;
58982;SDS011;44771;49.982;8.560;2022-12-07T05:31:27;23.40;;;17.40;;
58982;SDS011;44771;49.982;8.560;2022-12-07T05:36:30;23.62;;;15.73;;
58982;SDS011;44771;49.982;8.560;2022-12-07T05:41:32;25.00;;;17.58;;
58982;SDS011;44771;49.982;8.560;2022-12-07T05:46:34;24.60;;;17.37;;
58982;SDS011;44771;49.982;8.560;2022-12-07T05:51:37;24.50;;;17.23;;
58982;SDS011;44771;49.982;8.560;2022-12-07T05:56:39;22.80;;;16.67;;
58982;SDS011;44771;49.982;8.560;2022-12-07T06:01:41;22.58;;;17.25;;
58982;SDS011;44771;49.982;8.560;2022-12-07T06:06:44;22.92;;;16.83;;
58982;SDS011;44771;49.982;8.560;2022-12-07T06:11:46;26.27;;;16.92;;
58982;SDS011;44771;49.982;8.560;2022-12-07T06:16:48;22.73;;;16.67;;
58982;SDS011;44771;49.982;8.560;2022-12-07T06:21:52;28.80;;;17.92;;
58982;SDS011;44771;49.982;8.560;2022-12-07T06:26:54;23.17;;;16.37;;
58982;SDS011;44771;49.982;8.560;2022-12-07T06:31:55;26.55;;;16.15;;
58982;SDS011;44771;49.982;8.560;2022-12-07T06:36:58;24.25;;;16.65;;
58982;SDS011;44771;49.982;8.560;2022-12-07T06:42:00;25.75;;;18.05;;
58982;SDS011;44771;49.982;8.560;2022-12-07T06:47:02;20.08;;;17.00;;
58982;SDS011;44771;49.982;8.560;2022-12-07T06:52:25;21.42;;;16.70;;
58982;SDS011;44771;49.982;8.560;2022-12-07T06:57:27;24.37;;;16.50;;
58982;SDS011;44771;49.982;8.560;2022-12-07T07:02:29;27.35;;;17.02;;
58982;SDS011;44771;49.982;8.560;2022-12-07T07:07:32;25.37;;;18.00;;
58982;SDS011;44771;49.982;8.560;2022-12-07T07:12:54;24.58;;;18.77;;
58982;SDS011;44771;49.982;8.560;2022-12-07T07:17:58;22.40;;;17.85;;
58982;SDS011;44771;49.982;8.560;2022-12-07T07:23:09;29.85;;;18.40;;
58982;SDS011;44771;49.982;8.560;2022-12-07T07:28:11;22.52;;;16.87;;
58982;SDS011;44771;49.982;8.560;2022-12-07T07:33:13;27.73;;;19.37;;
58982;SDS011;44771;49.982;8.560;2022-12-07T07:38:16;20.37;;;17.12;;
58982;SDS011;44771;49.982;8.560;2022-12-07T07:43:17;22.13;;;16.67;;
58982;SDS011;44771;49.982;8.560;2022-12-07T07:48:19;22.02;;;18.00;;
58982;SDS011;44771;49.982;8.560;2022-12-07T07:53:22;25.80;;;18.90;;
58982;SDS011;44771;49.982;8.560;2022-12-07T07:58:24;26.25;;;18.08;;
58982;SDS011;44771;49.982;8.560;2022-12-07T08:03:42;29.12;;;17.95;;
58982;SDS011;44771;49.982;8.560;2022-12-07T08:08:45;26.17;;;18.55;;
58982;SDS011;44771;49.982;8.560;2022-12-07T08:13:47;28.45;;;17.73;;
58982;SDS011;44771;49.982;8.560;2022-12-07T08:18:48;23.42;;;17.90;;
58982;SDS011;44771;49.982;8.560;2022-12-07T08:23:51;24.40;;;18.23;;
58982;SDS011;44771;49.982;8.560;2022-12-07T08:28:53;26.05;;;18.70;;
58982;SDS011;44771;49.982;8.560;2022-12-07T08:33:55;27.98;;;18.33;;
58982;SDS011;44771;49.982;8.560;2022-12-07T08:38:58;26.73;;;19.33;;
58982;SDS011;44771;49.982;8.560;2022-12-07T08:44:20;25.30;;;18.17;;
58982;SDS011;44771;49.982;8.560;2022-12-07T08:49:23;27.48;;;19.12;;
58982;SDS011;44771;49.982;8.560;2022-12-07T08:59:30;26.55;;;18.58;;
58982;SDS011;44771;49.982;8.560;2022-12-07T09:04:34;23.58;;;18.37;;
58982;SDS011;44771;49.982;8.560;2022-12-07T09:09:37;27.55;;;18.90;;
58982;SDS011;44771;49.982;8.560;2022-12-07T09:14:39;27.10;;;19.58;;
58982;SDS011;44771;49.982;8.560;2022-12-07T09:19:40;28.00;;;18.92;;
58982;SDS011;44771;49.982;8.560;2022-12-07T09:24:43;24.60;;;18.50;;
58982;SDS011;44771;49.982;8.560;2022-12-07T09:29:45;23.15;;;18.00;;
58982;SDS011;44771;49.982;8.560;2022-12-07T09:34:47;31.37;;;19.90;;
58982;SDS011;44771;49.982;8.560;2022-12-07T09:39:50;27.25;;;18.67;;
58982;SDS011;44771;49.982;8.560;2022-12-07T09:44:55;27.87;;;18.20;;
58982;SDS011;44771;49.982;8.560;2022-12-07T09:50:00;28.25;;;18.17;;
58982;SDS011;44771;49.982;8.560;2022-12-07T09:55:12;22.02;;;17.67;;
58982;SDS011;44771;49.982;8.560;2022-12-07T10:00:16;25.75;;;18.10;;
58982;SDS011;44771;49.982;8.560;2022-12-07T10:05:21;23.02;;;18.25;;
58982;SDS011;44771;49.982;8.560;2022-12-07T10:10:29;26.58;;;19.12;;
58982;SDS011;44771;49.982;8.560;2022-12-07T10:15:43;23.08;;;16.55;;
58982;SDS011;44771;49.982;8.560;2022-12-07T10:20:47;22.87;;;17.77;;
58982;SDS011;44771;49.982;8.560;2022-12-07T10:25:51;25.92;;;17.77;;
58982;SDS011;44771;49.982;8.560;2022-12-07T10:30:54;23.02;;;17.35;;
58982;SDS011;44771;49.982;8.560;2022-12-07T10:35:58;22.35;;;17.55;;
58982;SDS011;44771;49.982;8.560;2022-12-07T10:41:06;26.90;;;18.52;;
58982;SDS011;44771;49.982;8.560;2022-12-07T10:46:20;23.20;;;17.58;;
58982;SDS011;44771;49.982;8.560;2022-12-07T10:51:45;21.02;;;16.27;;
58982;SDS011;44771;49.982;8.560;2022-12-07T10:56:58;21.08;;;16.35;;
58982;SDS011;44771;49.982;8.560;2022-12-07T11:02:17;24.40;;;16.95;;
58982;SDS011;44771;49.982;8.560;2022-12-07T11:07:28;18.20;;;16.00;;
58982;SDS011;44771;49.982;8.560;2022-12-07T11:12:45;19.67;;;16.67;;
58982;SDS011;44771;49.982;8.560;2022-12-07T11:17:56;17.15;;;15.30;;
58982;SDS011;44771;49.982;8.560;2022-12-07T11:23:11;21.87;;;16.40;;
58982;SDS011;44771;49.982;8.560;2022-12-07T11:28:32;18.58;;;15.65;;
58982;SDS011;44771;49.982;8.560;2022-12-07T11:33:45;19.77;;;17.55;;
58982;SDS011;44771;49.982;8.560;2022-12-07T11:38:50;18.58;;;15.95;;
58982;SDS011;44771;49.982;8.560;2022-12-07T11:43:56;22.62;;;16.67;;
58982;SDS011;44771;49.982;8.560;2022-12-07T11:49:03;19.10;;;14.63;;
58982;SDS011;44771;49.982;8.560;2022-12-07T11:54:15;19.00;;;14.77;;
58982;SDS011;44771;49.982;8.560;2022-12-07T11:59:23;18.40;;;15.30;;
58982;SDS011;44771;49.982;8.560;2022-12-07T12:04:34;15.73;;;14.10;;
58982;SDS011;44771;49.982;8.560;2022-12-07T12:09:52;17.08;;;13.35;;
58982;SDS011;44771;49.982;8.560;2022-12-07T12:15:02;14.45;;;12.90;;
58982;SDS011;44771;49.982;8.560;2022-12-07T12:20:18;15.50;;;12.25;;
58982;SDS011;44771;49.982;8.560;2022-12-07T12:25:25;15.25;;;13.40;;
58982;SDS011;44771;49.982;8.560;2022-12-07T12:30:33;15.02;;;13.82;;
58982;SDS011;44771;49.982;8.560;2022-12-07T12:35:36;13.40;;;12.40;;
58982;SDS011;44771;49.982;8.560;2022-12-07T12:40:42;13.32;;;12.32;;
58982;SDS011;44771;49.982;8.560;2022-12-07T12:45:52;12.63;;;11.75;;
58982;SDS011;44771;49.982;8.560;2022-12-07T12:51:36;12.90;;;11.80;;
58982;SDS011;44771;49.982;8.560;2022-12-07T12:56:39;12.77;;;11.65;;
58982;SDS011;44771;49.982;8.560;2022-12-07T13:01:48;13.62;;;12.43;;
58982;SDS011;44771;49.982;8.560;2022-12-07T13:06:51;13.37;;;12.27;;
58982;SDS011;44771;49.982;8.560;2022-12-07T13:11:58;13.07;;;12.18;;
58982;SDS011;44771;49.982;8.560;2022-12-07T13:17:03;13.13;;;12.23;;
58982;SDS011;44771;49.982;8.560;2022-12-07T13:27:41;13.30;;;11.98;;
58982;SDS011;44771;49.982;8.560;2022-12-07T13:32:52;11.93;;;11.02;;
58982;SDS011;44771;49.982;8.560;2022-12-07T13:37:55;13.60;;;12.43;;
58982;SDS011;44771;49.982;8.560;2022-12-07T13:42:57;12.32;;;11.25;;
58982;SDS011;44771;49.982;8.560;2022-12-07T13:48:01;17.75;;;13.77;;
58982;SDS011;44771;49.982;8.560;2022-12-07T13:53:07;13.70;;;12.48;;
58982;SDS011;44771;49.982;8.560;2022-12-07T13:58:14;12.23;;;11.25;;
58982;SDS011;44771;49.982;8.560;2022-12-07T14:03:25;12.23;;;11.32;;
58982;SDS011;44771;49.982;8.560;2022-12-07T14:08:29;13.98;;;12.77;;
58982;SDS011;44771;49.982;8.560;2022-12-07T14:13:32;12.98;;;11.55;;
58982;SDS011;44771;49.982;8.560;2022-12-07T14:18:38;12.60;;;11.77;;
58982;SDS011;44771;49.982;8.560;2022-12-07T14:23:41;13.23;;;12.20;;
58982;SDS011;44771;49.982;8.560;2022-12-07T14:28:43;12.82;;;11.93;;
58982;SDS011;44771;49.982;8.560;2022-12-07T14:33:47;13.20;;;12.00;;
58982;SDS011;44771;49.982;8.560;2022-12-07T14:38:49;13.43;;;12.52;;
58982;SDS011;44771;49.982;8.560;2022-12-07T14:43:50;13.40;;;12.20;;
58982;SDS011;44771;49.982;8.560;2022-12-07T14:49:19;13.62;;;12.55;;
58982;SDS011;44771;49.982;8.560;2022-12-07T14:54:36;13.43;;;12.32;;
58982;SDS011;44771;49.982;8.560;2022-12-07T14:59:38;12.52;;;11.65;;
58982;SDS011;44771;49.982;8.560;2022-12-07T15:04:46;12.13;;;10.93;;
58982;SDS011;44771;49.982;8.560;2022-12-07T15:09:48;13.00;;;11.00;;
58982;SDS011;44771;49.982;8.560;2022-12-07T15:14:50;13.45;;;12.35;;
58982;SDS011;44771;49.982;8.560;2022-12-07T15:19:53;12.48;;;11.55;;
58982;SDS011;44771;49.982;8.560;2022-12-07T15:24:55;13.52;;;11.75;;
58982;SDS011;44771;49.982;8.560;2022-12-07T15:29:57;14.05;;;12.37;;
58982;SDS011;44771;49.982;8.560;2022-12-07T15:35:00;13.30;;;12.13;;
58982;SDS011;44771;49.982;8.560;2022-12-07T15:40:02;12.45;;;11.35;;
58982;SDS011;44771;49.982;8.560;2022-12-07T15:45:08;13.45;;;12.20;;
58982;SDS011;44771;49.982;8.560;2022-12-07T15:50:13;15.65;;;12.60;;
58982;SDS011;44771;49.982;8.560;2022-12-07T15:55:16;14.02;;;13.02;;
58982;SDS011;44771;49.982;8.560;2022-12-07T16:00:18;15.50;;;14.15;;
58982;SDS011;44771;49.982;8.560;2022-12-07T16:05:22;17.98;;;15.15;;
58982;SDS011;44771;49.982;8.560;2022-12-07T16:10:24;18.08;;;13.85;;
58982;SDS011;44771;49.982;8.560;2022-12-07T16:15:25;14.95;;;13.50;;
58982;SDS011;44771;49.982;8.560;2022-12-07T16:20:28;15.15;;;13.77;;
58982;SDS011;44771;49.982;8.560;2022-12-07T16:25:30;14.50;;;12.65;;
58982;SDS011;44771;49.982;8.560;2022-12-07T16:30:32;14.52;;;13.10;;
58982;SDS011;44771;49.982;8.560;2022-12-07T16:35:37;14.43;;;13.10;;
58982;SDS011;44771;49.982;8.560;2022-12-07T16:40:39;14.50;;;13.07;;
58982;SDS011;44771;49.982;8.560;2022-12-07T16:45:41;15.45;;;13.93;;
58982;SDS011;44771;49.982;8.560;2022-12-07T16:50:44;14.80;;;12.88;;
58982;SDS011;44771;49.982;8.560;2022-12-07T16:55:51;17.67;;;12.77;;
58982;SDS011;44771;49.982;8.560;2022-12-07T17:00:53;12.70;;;11.50;;
58982;SDS011;44771;49.982;8.560;2022-12-07T17:05:57;14.65;;;13.27;;
58982;SDS011;44771;49.982;8.560;2022-12-07T17:11:02;12.37;;;11.27;;
58982;SDS011;44771;49.982;8.560;2022-12-07T17:16:11;16.12;;;13.50;;
58982;SDS011;44771;49.982;8.560;2022-12-07T17:21:14;13.90;;;12.60;;
58982;SDS011;44771;49.982;8.560;2022-12-07T17:26:16;34.30;;;17.98;;
58982;SDS011;44771;49.982;8.560;2022-12-07T17:31:21;15.32;;;13.85;;
58982;SDS011;44771;49.982;8.560;2022-12-07T17:36:26;13.35;;;12.20;;
58982;SDS011;44771;49.982;8.560;2022-12-07T17:41:29;13.43;;;12.32;;
58982;SDS011;44771;49.982;8.560;2022-12-07T17:46:31;15.38;;;12.10;;
58982;SDS011;44771;49.982;8.560;2022-12-07T17:51:34;14.10;;;12.60;;
58982;SDS011;44771;49.982;8.560;2022-12-07T17:56:36;15.40;;;12.18;;
58982;SDS011;44771;49.982;8.560;2022-12-07T18:01:41;14.68;;;13.10;;
58982;SDS011;44771;49.982;8.560;2022-12-07T18:07:03;17.85;;;13.38;;
58982;SDS011;44771;49.982;8.560;2022-12-07T18:12:05;16.05;;;14.35;;
58982;SDS011;44771;49.982;8.560;2022-12-07T18:17:10;16.15;;;14.63;;
58982;SDS011;44771;49.982;8.560;2022-12-07T18:22:13;18.10;;;14.38;;
58982;SDS011;44771;49.982;8.560;2022-12-07T18:27:15;16.48;;;13.02;;
58982;SDS011;44771;49.982;8.560;2022-12-07T18:32:17;19.25;;;13.80;;
58982;SDS011;44771;49.982;8.560;2022-12-07T18:37:20;20.02;;;14.87;;
58982;SDS011;44771;49.982;8.560;2022-12-07T18:42:21;16.15;;;14.30;;
58982;SDS011;44771;49.982;8.560;2022-12-07T18:47:23;23.20;;;16.02;;
58982;SDS011;44771;49.982;8.560;2022-12-07T18:52:26;21.08;;;16.45;;
58982;SDS011;44771;49.982;8.560;2022-12-07T18:57:30;17.05;;;14.35;;
58982;SDS011;44771;49.982;8.560;2022-12-07T19:02:32;18.50;;;14.95;;
58982;SDS011;44771;49.982;8.560;2022-12-07T19:07:36;18.52;;;15.40;;
58982;SDS011;44771;49.982;8.560;2022-12-07T19:12:38;18.98;;;14.63;;
58982;SDS011;44771;49.982;8.560;2022-12-07T19:17:41;21.00;;;16.30;;
58982;SDS011;44771;49.982;8.560;2022-12-07T19:22:44;19.80;;;16.17;;
58982;SDS011;44771;49.982;8.560;2022-12-07T19:27:47;24.17;;;17.27;;
58982;SDS011;44771;49.982;8.560;2022-12-07T19:32:49;20.02;;;15.77;;
58982;SDS011;44771;49.982;8.560;2022-12-07T19:37:52;20.12;;;16.08;;
58982;SDS011;44771;49.982;8.560;2022-12-07T19:42:54;22.62;;;17.87;;
58982;SDS011;44771;49.982;8.560;2022-12-07T19:47:55;23.52;;;17.27;;
58982;SDS011;44771;49.982;8.560;2022-12-07T19:52:59;21.10;;;16.12;;
58982;SDS011;44771;49.982;8.560;2022-12-07T19:58:00;15.55;;;13.95;;
58982;SDS011;44771;49.982;8.560;2022-12-07T20:03:02;18.27;;;16.37;;
58982;SDS011;44771;49.982;8.560;2022-12-07T20:08:06;19.75;;;14.93;;
58982;SDS011;44771;49.982;8.560;2022-12-07T20:13:07;16.98;;;15.15;;
58982;SDS011;44771;49.982;8.560;2022-12-07T20:18:09;17.45;;;14.25;;
58982;SDS011;44771;49.982;8.560;2022-12-07T20:23:12;16.92;;;14.85;;
58982;SDS011;44771;49.982;8.560;2022-12-07T20:28:14;16.12;;;14.63;;
58982;SDS011;44771;49.982;8.560;2022-12-07T20:33:16;19.48;;;14.27;;
58982;SDS011;44771;49.982;8.560;2022-12-07T20:38:19;16.85;;;15.10;;
58982;SDS011;44771;49.982;8.560;2022-12-07T20:43:21;20.45;;;15.75;;
58982;SDS011;44771;49.982;8.560;2022-12-07T20:54:19;23.65;;;16.70;;
58982;SDS011;44771;49.982;8.560;2022-12-07T21:04:44;25.62;;;17.65;;
58982;SDS011;44771;49.982;8.560;2022-12-07T21:09:50;24.92;;;18.48;;
58982;SDS011;44771;49.982;8.560;2022-12-07T21:14:52;22.10;;;17.67;;
58982;SDS011;44771;49.982;8.560;2022-12-07T21:19:54;26.42;;;18.58;;
58982;SDS011;44771;49.982;8.560;2022-12-07T21:24:57;29.33;;;18.95;;
58982;SDS011;44771;49.982;8.560;2022-12-07T21:29:59;26.40;;;18.95;;
58982;SDS011;44771;49.982;8.560;2022-12-07T21:40:32;29.45;;;19.60;;
58982;SDS011;44771;49.982;8.560;2022-12-07T21:45:34;31.10;;;19.73;;
58982;SDS011;44771;49.982;8.560;2022-12-07T21:50:36;25.02;;;18.08;;
58982;SDS011;44771;49.982;8.560;2022-12-07T21:55:40;27.50;;;18.95;;
58982;SDS011;44771;49.982;8.560;2022-12-07T22:00:42;26.90;;;21.53;;
58982;SDS011;44771;49.982;8.560;2022-12-07T22:05:44;31.02;;;19.65;;
58982;SDS011;44771;49.982;8.560;2022-12-07T22:10:47;32.05;;;19.25;;
58982;SDS011;44771;49.982;8.560;2022-12-07T22:15:49;27.45;;;19.98;;
58982;SDS011;44771;49.982;8.560;2022-12-07T22:20:50;29.95;;;19.33;;
58982;SDS011;44771;49.982;8.560;2022-12-07T22:26:02;28.30;;;19.98;;
58982;SDS011;44771;49.982;8.560;2022-12-07T22:31:06;30.92;;;20.50;;
58982;SDS011;44771;49.982;8.560;2022-12-07T22:36:09;32.07;;;19.70;;
58982;SDS011;44771;49.982;8.560;2022-12-07T22:41:14;29.65;;;19.85;;
58982;SDS011;44771;49.982;8.560;2022-12-07T22:46:19;29.63;;;19.85;;
58982;SDS011;44771;49.982;8.560;2022-12-07T22:51:21;35.47;;;22.45;;
58982;SDS011;44771;49.982;8.560;2022-12-07T22:56:26;34.13;;;21.10;;
58982;SDS011;44771;49.982;8.560;2022-12-07T23:01:29;33.72;;;21.58;;
58982;SDS011;44771;49.982;8.560;2022-12-07T23:06:32;36.53;;;21.87;;
58982;SDS011;44771;49.982;8.560;2022-12-07T23:11:37;28.25;;;20.02;;
58982;SDS011;44771;49.982;8.560;2022-12-07T23:16:40;38.28;;;21.45;;
58982;SDS011;44771;49.982;8.560;2022-12-07T23:21:43;36.03;;;20.90;;
58982;SDS011;44771;49.982;8.560;2022-12-07T23:26:46;32.05;;;20.52;;
58982;SDS011;44771;49.982;8.560;2022-12-07T23:31:48;31.73;;;21.62;;
58982;SDS011;44771;49.982;8.560;2022-12-07T23:36:50;31.20;;;20.10;;
58982;SDS011;44771;49.982;8.560;2022-12-07T23:41:53;34.80;;;20.85;;
58982;SDS011;44771;49.982;8.560;2022-12-07T23:46:55;34.30;;;22.27;;
58982;SDS011;44771;49.982;8.560;2022-12-07T23:51:57;33.50;;;19.90;;
58982;SDS011;44771;49.982;8.560;2022-12-07T23:57:00;35.25;;;19.58;;
